createdAt,value
2018-11-05T00:01:25.669Z,19.50
2018-11-05T00:03:54.170Z,20.90
2018-11-05T00:06:22.716Z,19.47
2018-11-05T00:08:51.217Z,19.03
2018-11-05T00:11:19.729Z,18.00
2018-11-05T00:13:48.238Z,20.87
2018-11-05T00:16:16.757Z,17.97
2018-11-05T00:18:45.230Z,18.43
2018-11-05T00:21:13.771Z,18.40
2018-11-05T00:23:42.267Z,16.87
2018-11-05T00:26:10.790Z,18.57
2018-11-05T00:28:39.281Z,17.33
2018-11-05T00:31:07.847Z,18.07
2018-11-05T00:33:36.378Z,19.70
2018-11-05T00:36:05.191Z,16.83
2018-11-05T00:38:33.685Z,16.17
2018-11-05T00:41:02.221Z,17.73
2018-11-05T00:43:30.709Z,19.37
2018-11-05T00:45:59.214Z,19.33
2018-11-05T00:48:27.738Z,20.80
2018-11-05T00:50:56.313Z,19.07
2018-11-05T00:53:24.801Z,20.17
2018-11-05T00:55:53.314Z,19.97
2018-11-05T00:58:21.819Z,17.93
2018-11-05T01:00:50.341Z,19.03
2018-11-05T01:03:18.857Z,20.40
2018-11-05T01:05:47.365Z,20.10
2018-11-05T01:08:15.874Z,17.63
2018-11-05T01:10:44.400Z,19.40
2018-11-05T01:13:12.914Z,20.80
2018-11-05T01:15:41.440Z,23.43
2018-11-05T01:18:09.937Z,20.93
2018-11-05T01:20:38.476Z,21.73
2018-11-05T01:23:07.018Z,19.90
2018-11-05T01:25:35.648Z,20.13
2018-11-05T01:28:04.161Z,18.83
2018-11-05T01:30:32.710Z,20.13
2018-11-05T01:33:01.257Z,23.63
2018-11-05T01:35:29.753Z,22.50
2018-11-05T01:37:58.310Z,20.57
2018-11-05T01:40:26.847Z,25.07
2018-11-05T01:42:55.387Z,22.07
2018-11-05T01:45:23.921Z,23.37
2018-11-05T01:47:52.457Z,21.07
2018-11-05T01:50:20.989Z,26.03
2018-11-05T01:52:49.553Z,23.23
2018-11-05T01:55:18.085Z,23.90
2018-11-05T01:57:46.633Z,20.13
2018-11-05T02:00:16.664Z,20.93
2018-11-05T02:02:46.009Z,20.17
2018-11-05T02:05:14.529Z,22.90
2018-11-05T02:07:44.373Z,22.17
2018-11-05T02:10:14.543Z,22.53
2018-11-05T02:12:43.082Z,24.43
2018-11-05T02:15:12.050Z,25.70
2018-11-05T02:17:42.101Z,23.13
2018-11-05T02:20:10.971Z,22.87
2018-11-05T02:22:39.560Z,23.80
2018-11-05T02:25:09.261Z,22.20
2018-11-05T02:27:37.804Z,22.07
2018-11-05T02:30:10.220Z,23.70
2018-11-05T02:32:38.761Z,22.20
2018-11-05T02:35:08.417Z,20.43
2018-11-05T02:37:36.930Z,19.30
2018-11-05T02:40:08.745Z,19.03
2018-11-05T02:42:37.361Z,20.00
2018-11-05T02:45:07.350Z,20.60
2018-11-05T02:47:36.074Z,22.03
2018-11-05T02:50:05.134Z,22.13
2018-11-05T02:52:33.705Z,24.87
2018-11-05T02:55:02.196Z,19.97
2018-11-05T02:57:30.713Z,19.53
2018-11-05T02:59:59.639Z,19.53
2018-11-05T03:02:28.258Z,22.97
2018-11-05T03:04:56.845Z,21.80
2018-11-05T03:07:25.442Z,22.63
2018-11-05T03:09:54.335Z,22.23
2018-11-05T03:12:22.869Z,19.90
2018-11-05T03:14:51.400Z,21.23
2018-11-05T03:17:20.041Z,21.67
2018-11-05T03:19:48.526Z,23.17
2018-11-05T03:22:17.049Z,20.03
2018-11-05T03:24:45.549Z,21.17
2018-11-05T03:27:14.075Z,20.20
2018-11-05T03:29:42.586Z,21.93
2018-11-05T03:32:11.096Z,24.00
2018-11-05T03:34:39.639Z,22.97
2018-11-05T03:37:08.176Z,22.67
2018-11-05T03:39:36.702Z,23.13
2018-11-05T03:42:06.014Z,23.90
2018-11-05T03:44:34.543Z,24.50
2018-11-05T03:47:03.081Z,21.30
2018-11-05T03:49:31.601Z,23.63
2018-11-05T03:52:00.125Z,25.53
2018-11-05T03:54:28.640Z,25.00
2018-11-05T03:56:57.199Z,26.17
2018-11-05T03:59:25.697Z,26.23
2018-11-05T04:01:54.246Z,25.10
2018-11-05T04:04:22.767Z,23.70
2018-11-05T04:06:51.345Z,23.23
2018-11-05T04:09:19.910Z,21.37
2018-11-05T04:11:48.474Z,25.03
2018-11-05T04:14:17.042Z,26.03
2018-11-05T04:16:45.566Z,24.97
2018-11-05T04:19:14.118Z,25.00
2018-11-05T04:21:44.513Z,25.10
2018-11-05T04:24:14.258Z,27.63
2018-11-05T04:26:44.414Z,23.63
2018-11-05T04:29:13.017Z,28.30
2018-11-05T04:31:41.822Z,25.20
2018-11-05T04:34:11.340Z,28.17
2018-11-05T04:36:39.869Z,32.80
2018-11-05T04:39:13.846Z,26.30
2018-11-05T04:41:42.514Z,27.63
2018-11-05T04:44:11.121Z,34.17
2018-11-05T04:46:40.282Z,31.37
2018-11-05T04:49:09.751Z,33.30
2018-11-05T04:51:38.381Z,29.10
2018-11-05T04:54:07.393Z,33.00
2018-11-05T04:56:36.387Z,26.27
2018-11-05T04:59:05.508Z,29.10
2018-11-05T05:01:34.054Z,30.23
2018-11-05T05:04:02.621Z,34.27
2018-11-05T05:06:31.150Z,30.60
2018-11-05T05:08:59.682Z,32.77
2018-11-05T05:11:28.214Z,33.20
2018-11-05T05:13:56.779Z,31.87
2018-11-05T05:16:25.454Z,29.63
2018-11-05T05:18:53.869Z,28.97
2018-11-05T05:21:22.391Z,27.47
2018-11-05T05:23:50.941Z,27.20
2018-11-05T05:26:19.492Z,29.87
2018-11-05T05:28:48.070Z,30.53
2018-11-05T05:31:16.705Z,29.17
2018-11-05T05:33:45.344Z,31.97
2018-11-05T05:36:13.838Z,31.17
2018-11-05T05:38:42.365Z,31.10
2018-11-05T05:41:10.980Z,35.23
2018-11-05T05:43:39.474Z,30.10
2018-11-05T05:46:08.075Z,33.27
2018-11-05T05:48:36.650Z,31.77
2018-11-05T05:51:05.486Z,34.27
2018-11-05T05:53:34.046Z,28.17
2018-11-05T05:56:02.613Z,29.10
2018-11-05T05:58:31.143Z,33.90
2018-11-05T06:00:59.730Z,29.27
2018-11-05T06:03:28.310Z,31.37
2018-11-05T06:05:56.930Z,31.47
2018-11-05T06:08:25.430Z,32.87
2018-11-05T06:10:53.996Z,30.23
2018-11-05T06:13:22.525Z,27.53
2018-11-05T06:15:51.102Z,31.50
2018-11-05T06:18:19.829Z,31.20
2018-11-05T06:20:48.501Z,28.37
2018-11-05T06:23:17.025Z,28.30
2018-11-05T06:25:45.574Z,27.73
2018-11-05T06:28:14.114Z,29.27
2018-11-05T06:30:42.694Z,26.40
2018-11-05T06:33:11.255Z,27.40
2018-11-05T06:35:39.824Z,28.32
2018-11-05T06:38:08.438Z,31.47
2018-11-05T06:40:37.054Z,32.27
2018-11-05T06:43:05.998Z,29.30
2018-11-05T06:45:34.694Z,30.13
2018-11-05T06:48:04.589Z,27.40
2018-11-05T06:50:33.196Z,26.10
2018-11-05T06:53:01.990Z,25.67
2018-11-05T06:55:34.193Z,28.23
2018-11-05T06:58:02.847Z,28.73
2018-11-05T07:00:32.314Z,26.03
2018-11-05T07:03:00.895Z,24.10
2018-11-05T07:05:29.482Z,26.47
2018-11-05T07:07:58.084Z,25.20
2018-11-05T07:10:26.637Z,27.90
2018-11-05T07:13:02.871Z,25.57
2018-11-05T07:15:34.088Z,24.40
2018-11-05T07:18:05.552Z,25.77
2018-11-05T07:20:36.927Z,26.43
2018-11-05T07:23:09.407Z,24.70
2018-11-05T07:25:40.150Z,24.00
2018-11-05T07:28:08.925Z,24.13
2018-11-05T07:30:38.390Z,24.30
2018-11-05T07:33:07.062Z,26.00
2018-11-05T07:35:35.632Z,21.93
2018-11-05T07:38:04.913Z,23.13
2018-11-05T07:40:33.470Z,26.77
2018-11-05T07:43:02.154Z,26.27
2018-11-05T07:45:30.811Z,26.00
2018-11-05T07:47:59.385Z,25.47
2018-11-05T07:50:28.408Z,24.70
2018-11-05T07:52:57.070Z,27.57
2018-11-05T07:55:25.677Z,28.87
2018-11-05T07:57:58.841Z,25.17
2018-11-05T08:00:33.401Z,26.43
2018-11-05T08:03:02.257Z,24.23
2018-11-05T08:05:31.490Z,24.63
2018-11-05T08:08:00.088Z,25.70
2018-11-05T08:10:29.996Z,23.37
2018-11-05T08:12:58.597Z,24.67
2018-11-05T08:15:27.265Z,24.77
2018-11-05T08:17:56.022Z,24.57
2018-11-05T08:20:25.756Z,25.63
2018-11-05T08:22:54.659Z,24.27
2018-11-05T08:25:23.221Z,25.40
2018-11-05T08:27:51.974Z,25.17
2018-11-05T08:30:22.927Z,26.40
2018-11-05T08:32:51.787Z,21.90
2018-11-05T08:35:20.434Z,28.27
2018-11-05T08:37:49.483Z,23.27
2018-11-05T08:40:23.864Z,26.27
2018-11-05T08:42:53.672Z,24.60
2018-11-05T08:45:25.454Z,22.80
2018-11-05T08:47:54.328Z,31.10
2018-11-05T08:50:23.585Z,23.00
2018-11-05T08:52:52.216Z,27.33
2018-11-05T08:55:22.233Z,26.80
2018-11-05T08:57:52.041Z,24.67
2018-11-05T09:00:26.001Z,25.90
2018-11-05T09:02:55.157Z,23.13
2018-11-05T09:05:24.097Z,25.93
2018-11-05T09:07:53.552Z,26.43
2018-11-05T09:10:22.280Z,27.60
2018-11-05T09:12:50.715Z,24.83
2018-11-05T09:15:20.567Z,24.13
2018-11-05T09:17:49.334Z,25.17
2018-11-05T09:20:18.752Z,21.73
2018-11-05T09:22:48.025Z,20.53
2018-11-05T09:25:17.615Z,21.30
2018-11-05T09:27:46.291Z,24.87
2018-11-05T09:30:17.702Z,22.53
2018-11-05T09:32:46.888Z,26.57
2018-11-05T09:35:20.325Z,22.60
2018-11-05T09:37:49.089Z,22.33
2018-11-05T09:40:23.394Z,23.23
2018-11-05T09:42:57.274Z,23.70
2018-11-05T09:45:31.447Z,25.40
2018-11-05T09:48:03.668Z,26.27
2018-11-05T09:50:36.623Z,23.07
2018-11-05T09:53:09.768Z,20.40
2018-11-05T09:55:43.433Z,24.07
2018-11-05T09:58:17.223Z,23.97
2018-11-05T10:00:46.046Z,21.37
2018-11-05T10:03:20.283Z,23.10
2018-11-05T10:05:49.062Z,26.73
2018-11-05T10:08:17.953Z,24.17
2018-11-05T10:10:46.758Z,19.70
2018-11-05T10:13:15.370Z,27.07
2018-11-05T10:15:45.099Z,23.07
2018-11-05T10:18:13.635Z,21.47
2018-11-05T10:20:42.222Z,22.27
2018-11-05T10:23:10.890Z,26.47
2018-11-05T10:25:57.595Z,23.37
2018-11-05T10:28:26.237Z,21.07
2018-11-05T10:30:54.793Z,24.10
2018-11-05T10:33:23.501Z,23.67
2018-11-05T10:35:54.089Z,30.90
2018-11-05T10:38:23.151Z,21.80
2018-11-05T10:40:51.789Z,19.70
2018-11-05T10:43:20.484Z,18.63
2018-11-05T10:45:49.093Z,21.13
2018-11-05T10:48:17.691Z,25.57
2018-11-05T10:50:46.436Z,21.80
2018-11-05T10:53:15.116Z,24.20
2018-11-05T10:55:43.773Z,20.17
2018-11-05T10:58:12.404Z,20.30
2018-11-05T11:00:47.209Z,21.47
2018-11-05T11:03:18.785Z,21.60
2018-11-05T11:05:47.609Z,24.93
2018-11-05T11:08:16.337Z,21.30
2018-11-05T11:10:45.094Z,18.97
2018-11-05T11:13:13.736Z,18.97
2018-11-05T11:15:42.300Z,21.10
2018-11-05T11:18:10.909Z,21.20
2018-11-05T11:20:39.997Z,23.30
2018-11-05T11:23:08.747Z,20.20
2018-11-05T11:25:37.357Z,19.30
2018-11-05T11:28:06.374Z,24.73
2018-11-05T11:30:35.385Z,20.80
2018-11-05T11:33:04.015Z,18.93
2018-11-05T11:35:32.667Z,19.67
2018-11-05T11:38:01.297Z,19.83
2018-11-05T11:40:29.942Z,19.07
2018-11-05T11:42:59.121Z,23.70
2018-11-05T11:45:27.799Z,20.53
2018-11-05T11:47:56.654Z,18.93
2018-11-05T11:50:25.349Z,22.23
2018-11-05T11:52:54.182Z,20.73
2018-11-05T11:55:23.461Z,19.53
2018-11-05T11:57:52.083Z,19.60
2018-11-05T12:00:22.886Z,18.03
2018-11-05T12:02:52.870Z,17.20
2018-11-05T12:05:21.586Z,16.60
2018-11-05T12:07:50.061Z,18.40
2018-11-05T12:10:21.453Z,24.33
2018-11-05T12:12:50.105Z,19.57
2018-11-05T12:15:19.718Z,22.83
2018-11-05T12:17:52.919Z,18.13
2018-11-05T12:20:23.613Z,18.50
2018-11-05T12:22:52.997Z,19.43
2018-11-05T12:25:21.585Z,17.90
2018-11-05T12:27:50.157Z,22.80
2018-11-05T12:30:22.084Z,15.80
2018-11-05T12:32:51.532Z,19.93
2018-11-05T12:35:20.756Z,21.70
2018-11-05T12:37:50.578Z,21.57
2018-11-05T12:40:22.380Z,19.60
2018-11-05T12:42:51.966Z,20.17
2018-11-05T12:45:22.113Z,19.47
2018-11-05T12:47:50.701Z,18.77
2018-11-05T12:50:21.853Z,18.90
2018-11-05T12:52:51.596Z,16.97
2018-11-05T12:55:20.301Z,16.03
2018-11-05T12:57:49.186Z,22.87
2018-11-05T13:00:19.957Z,15.80
2018-11-05T13:02:52.794Z,15.97
2018-11-05T13:05:21.953Z,16.13
2018-11-05T13:07:50.689Z,19.07
2018-11-05T13:10:19.426Z,17.73
2018-11-05T13:12:54.652Z,15.87
2018-11-05T13:15:23.947Z,17.97
2018-11-05T13:17:53.237Z,18.93
2018-11-05T13:20:23.571Z,16.03
2018-11-05T13:22:52.415Z,18.23
2018-11-05T13:25:21.230Z,15.67
2018-11-05T13:27:50.926Z,18.30
2018-11-05T13:30:20.530Z,14.53
2018-11-05T13:32:49.156Z,18.03
2018-11-05T13:35:20.746Z,17.37
2018-11-05T13:37:49.826Z,18.30
2018-11-05T13:40:23.210Z,14.70
2018-11-05T13:42:52.278Z,15.87
2018-11-05T13:45:21.406Z,14.87
2018-11-05T13:47:50.959Z,16.13
2018-11-05T13:50:19.267Z,16.77
2018-11-05T13:52:47.575Z,16.20
2018-11-05T13:55:18.304Z,15.80
2018-11-05T13:57:48.107Z,12.50
2018-11-05T14:00:18.023Z,12.87
2018-11-05T14:02:47.433Z,14.63
2018-11-05T14:05:17.433Z,14.17
2018-11-05T14:07:46.734Z,13.93
2018-11-05T14:10:17.665Z,14.03
2018-11-05T14:12:46.886Z,16.10
2018-11-05T14:15:16.667Z,13.60
2018-11-05T14:17:45.734Z,17.57
2018-11-05T14:20:15.361Z,14.70
2018-11-05T14:22:44.285Z,18.73
2018-11-05T14:25:15.447Z,16.83
2018-11-05T14:27:45.505Z,15.93
2018-11-05T14:30:14.337Z,13.23
2018-11-05T14:32:43.973Z,16.07
2018-11-05T14:35:12.731Z,14.23
2018-11-05T14:37:41.433Z,51.27
2018-11-05T14:40:11.960Z,16.67
2018-11-05T14:42:40.566Z,18.00
2018-11-05T14:45:12.166Z,17.40
2018-11-05T14:47:41.626Z,20.73
2018-11-05T14:50:12.163Z,17.33
2018-11-05T14:52:40.813Z,15.13
2018-11-05T14:55:13.720Z,16.93
2018-11-05T14:57:43.757Z,18.87
2018-11-05T15:00:15.546Z,19.17
2018-11-05T15:02:44.898Z,17.03
2018-11-05T15:05:15.030Z,18.90
2018-11-05T15:07:44.679Z,20.70
2018-11-05T15:10:15.347Z,19.57
2018-11-05T15:12:44.453Z,18.77
2018-11-05T15:15:13.949Z,18.97
2018-11-05T15:17:43.369Z,23.47
2018-11-05T15:20:13.699Z,29.40
2018-11-05T15:22:42.215Z,22.60
2018-11-05T15:25:11.343Z,21.83
2018-11-05T15:27:40.261Z,22.93
2018-11-05T15:30:12.660Z,25.37
2018-11-05T15:32:41.835Z,22.60
2018-11-05T15:35:10.699Z,22.27
2018-11-05T15:37:40.329Z,23.83
2018-11-05T15:40:10.434Z,24.60
2018-11-05T15:42:39.521Z,23.43
2018-11-05T15:45:10.070Z,26.57
2018-11-05T15:47:39.157Z,25.57
2018-11-05T15:50:09.778Z,20.00
2018-11-05T15:52:38.615Z,20.67
2018-11-05T15:55:07.266Z,23.53
2018-11-05T15:57:36.484Z,26.73
2018-11-05T16:00:13.685Z,23.07
2018-11-05T16:02:42.310Z,22.00
2018-11-05T16:05:10.825Z,27.30
2018-11-05T16:07:39.451Z,23.83
2018-11-05T16:10:08.801Z,26.40
2018-11-05T16:12:38.233Z,24.63
2018-11-05T16:15:07.963Z,29.87
2018-11-05T16:17:37.062Z,23.93
2018-11-05T16:20:07.017Z,25.50
2018-11-05T16:22:35.722Z,22.43
2018-11-05T16:25:04.566Z,20.20
2018-11-05T16:27:33.089Z,28.30
2018-11-05T16:30:01.643Z,22.37
2018-11-05T16:32:30.177Z,26.67
2018-11-05T16:34:59.046Z,24.07
2018-11-05T16:37:27.522Z,27.13
2018-11-05T16:39:56.098Z,28.80
2018-11-05T16:42:24.636Z,24.97
2018-11-05T16:44:53.164Z,26.80
2018-11-05T16:47:21.701Z,20.40
2018-11-05T16:49:50.253Z,24.63
2018-11-05T16:52:18.798Z,23.33
2018-11-05T16:54:47.376Z,24.53
2018-11-05T16:57:15.950Z,20.90
2018-11-05T16:59:44.517Z,21.53
2018-11-05T17:02:14.824Z,23.67
2018-11-05T17:04:44.538Z,22.20
2018-11-05T17:07:13.098Z,22.63
2018-11-05T17:09:41.653Z,20.40
2018-11-05T17:12:10.227Z,24.13
2018-11-05T17:14:38.782Z,25.37
2018-11-05T17:17:07.334Z,20.20
2018-11-05T17:19:35.938Z,22.53
2018-11-05T17:22:04.519Z,20.90
2018-11-05T17:24:33.081Z,21.97
2018-11-05T17:27:01.634Z,30.23
2018-11-05T17:29:30.287Z,34.17
2018-11-05T17:31:58.837Z,36.20
2018-11-05T17:34:27.640Z,38.67
2018-11-05T17:36:56.197Z,36.60
2018-11-05T17:39:24.769Z,27.90
2018-11-05T17:41:53.380Z,26.00
2018-11-05T17:44:21.975Z,24.13
2018-11-05T17:46:50.518Z,30.37
2018-11-05T17:49:19.083Z,26.80
2018-11-05T17:51:47.657Z,26.30
2018-11-05T17:54:16.215Z,26.33
2018-11-05T17:56:44.806Z,30.87
2018-11-05T17:59:13.719Z,25.37
2018-11-05T18:01:42.332Z,28.47
2018-11-05T18:04:10.945Z,27.93
2018-11-05T18:06:39.488Z,29.10
2018-11-05T18:09:09.050Z,30.57
2018-11-05T18:11:37.915Z,26.77
2018-11-05T18:14:06.685Z,25.70
2018-11-05T18:16:35.290Z,27.60
2018-11-05T18:19:03.939Z,29.37
2018-11-05T18:21:32.409Z,35.17
2018-11-05T18:24:01.059Z,29.67
2018-11-05T18:26:29.637Z,29.90
2018-11-05T18:28:58.533Z,22.67
2018-11-05T18:31:27.135Z,23.10
2018-11-05T18:33:55.662Z,27.37
2018-11-05T18:36:24.282Z,28.00
2018-11-05T18:38:53.001Z,25.97
2018-11-05T18:41:21.620Z,27.20
2018-11-05T18:43:50.198Z,24.03
2018-11-05T18:46:18.791Z,28.80
2018-11-05T18:48:47.322Z,27.97
2018-11-05T18:51:15.877Z,27.10
2018-11-05T18:53:44.389Z,25.47
2018-11-05T18:56:12.969Z,25.03
2018-11-05T18:58:41.494Z,25.43
2018-11-05T19:01:10.063Z,27.67
2018-11-05T19:03:38.670Z,29.20
2018-11-05T19:06:07.213Z,26.30
2018-11-05T19:08:35.782Z,22.50
2018-11-05T19:11:04.814Z,22.63
2018-11-05T19:13:33.389Z,25.80
2018-11-05T19:16:02.266Z,21.13
2018-11-05T19:18:30.858Z,25.10
2018-11-05T19:20:59.538Z,21.50
2018-11-05T19:23:28.123Z,19.17
2018-11-05T19:25:56.658Z,22.83
2018-11-05T19:28:25.306Z,24.17
2018-11-05T19:30:53.861Z,25.30
2018-11-05T19:33:22.462Z,33.87
2018-11-05T19:35:50.983Z,25.43
2018-11-05T19:38:19.530Z,20.57
2018-11-05T19:40:48.084Z,32.57
2018-11-05T19:43:16.952Z,27.40
2018-11-05T19:45:45.319Z,20.40
2018-11-05T19:48:13.845Z,25.17
2018-11-05T19:50:42.404Z,23.47
2018-11-05T19:53:10.923Z,21.07
2018-11-05T19:55:39.607Z,23.63
2018-11-05T19:58:08.208Z,23.47
2018-11-05T20:00:36.927Z,25.40
2018-11-05T20:03:05.594Z,21.97
2018-11-05T20:05:34.324Z,23.00
2018-11-05T20:08:03.793Z,24.97
2018-11-05T20:10:33.072Z,21.00
2018-11-05T20:13:01.607Z,20.70
2018-11-05T20:15:30.194Z,22.40
2018-11-05T20:17:58.757Z,27.30
2018-11-05T20:20:27.500Z,20.43
2018-11-05T20:22:56.189Z,20.47
2018-11-05T20:25:24.606Z,21.73
2018-11-05T20:27:53.182Z,28.30
2018-11-05T20:30:24.016Z,26.73
2018-11-05T20:32:54.174Z,28.77
2018-11-05T20:35:22.412Z,31.53
2018-11-05T20:37:51.314Z,31.87
2018-11-05T20:40:20.909Z,32.27
2018-11-05T20:42:50.526Z,33.10
2018-11-05T20:45:19.818Z,30.50
2018-11-05T20:47:48.449Z,29.17
2018-11-05T20:50:17.605Z,30.37
2018-11-05T20:52:46.175Z,39.67
2018-11-05T20:55:15.890Z,29.87
2018-11-05T20:57:44.804Z,27.33
2018-11-05T21:00:15.141Z,28.00
2018-11-05T21:02:43.915Z,28.60
2018-11-05T21:05:12.532Z,27.93
2018-11-05T21:07:41.903Z,27.73
2018-11-05T21:10:11.792Z,22.27
2018-11-05T21:12:41.457Z,23.87
2018-11-05T21:15:18.477Z,23.37
2018-11-05T21:17:47.940Z,26.17
2018-11-05T21:20:16.681Z,21.47
2018-11-05T21:22:45.853Z,22.50
2018-11-05T21:25:14.189Z,23.97
2018-11-05T21:27:43.582Z,22.53
2018-11-05T21:30:14.517Z,23.67
2018-11-05T21:32:43.073Z,27.53
2018-11-05T21:35:13.714Z,25.10
2018-11-05T21:37:42.625Z,23.03
2018-11-05T21:40:12.413Z,23.57
2018-11-05T21:42:40.965Z,23.93
2018-11-05T21:45:10.713Z,23.50
2018-11-05T21:47:39.734Z,24.97
2018-11-05T21:50:10.179Z,27.70
2018-11-05T21:52:39.573Z,25.50
2018-11-05T21:55:08.638Z,31.70
2018-11-05T21:57:38.894Z,42.13
2018-11-05T22:00:10.437Z,42.93
2018-11-05T22:02:44.286Z,29.83
2018-11-05T22:05:13.209Z,24.60
2018-11-05T22:07:41.766Z,28.50
2018-11-05T22:10:10.898Z,29.03
2018-11-05T22:12:39.493Z,20.87
2018-11-05T22:15:08.066Z,20.57
2018-11-05T22:17:36.654Z,22.33
2018-11-05T22:20:05.835Z,21.77
2018-11-05T22:22:34.427Z,24.77
2018-11-05T22:25:02.925Z,25.37
2018-11-05T22:27:31.651Z,22.40
2018-11-05T22:30:00.897Z,70.97
2018-11-05T22:32:30.225Z,72.20
2018-11-05T22:34:59.907Z,120.90
2018-11-05T22:37:28.481Z,73.07
2018-11-05T22:39:57.010Z,38.63
2018-11-05T22:42:25.569Z,21.07
2018-11-05T22:44:54.176Z,21.90
2018-11-05T22:47:23.037Z,21.93
2018-11-05T22:49:51.848Z,22.27
2018-11-05T22:52:20.378Z,22.13
2018-11-05T22:54:48.978Z,23.10
2018-11-05T22:57:17.697Z,21.83
2018-11-05T22:59:46.240Z,25.37
2018-11-05T23:02:14.767Z,24.87
2018-11-05T23:04:43.325Z,24.57
2018-11-05T23:07:11.841Z,22.83
2018-11-05T23:09:40.393Z,22.47
2018-11-05T23:12:08.968Z,21.53
2018-11-05T23:14:37.534Z,19.03
2018-11-05T23:17:06.372Z,19.03
2018-11-05T23:19:34.941Z,39.07
2018-11-05T23:22:03.494Z,27.27
2018-11-05T23:24:32.067Z,25.17
2018-11-05T23:27:00.597Z,21.97
2018-11-05T23:29:29.162Z,23.40
2018-11-05T23:31:57.714Z,19.70
2018-11-05T23:34:26.288Z,18.17
2018-11-05T23:36:54.820Z,19.53
2018-11-05T23:39:23.383Z,23.80
2018-11-05T23:41:51.921Z,21.97
2018-11-05T23:44:20.481Z,22.27
2018-11-05T23:46:49.029Z,19.80
2018-11-05T23:49:17.617Z,22.67
2018-11-05T23:51:46.209Z,19.10
2018-11-05T23:54:14.729Z,19.43
2018-11-05T23:56:43.248Z,21.27
2018-11-05T23:59:11.818Z,18.87
